createdAt,value
2022-08-07T00:00:51.594Z,86.60
2022-08-07T00:03:18.356Z,86.90
2022-08-07T00:05:45.513Z,87.10
2022-08-07T00:08:14.513Z,87.30
2022-08-07T00:10:47.745Z,87.30
2022-08-07T00:13:26.690Z,87.40
2022-08-07T00:15:53.807Z,87.40
2022-08-07T00:18:24.059Z,87.40
2022-08-07T00:20:51.339Z,87.40
2022-08-07T00:23:18.317Z,87.30
2022-08-07T00:25:58.160Z,87.20
2022-08-07T00:28:26.040Z,87.30
2022-08-07T00:31:06.194Z,87.30
2022-08-07T00:33:39.797Z,87.40
2022-08-07T00:36:07.712Z,87.30
2022-08-07T00:38:36.631Z,87.40
2022-08-07T00:41:04.561Z,87.40
2022-08-07T00:44:00.198Z,87.50
2022-08-07T00:46:23.630Z,87.40
2022-08-07T00:48:51.798Z,87.30
2022-08-07T00:51:19.166Z,87.30
2022-08-07T00:53:50.705Z,87.40
2022-08-07T00:56:23.020Z,87.30
2022-08-07T00:58:56.911Z,87.00
2022-08-07T01:01:23.760Z,86.80
2022-08-07T01:03:55.547Z,86.70
2022-08-07T01:06:28.696Z,86.50
2022-08-07T01:08:58.442Z,86.60
2022-08-07T01:12:23.902Z,86.60
2022-08-07T01:14:15.541Z,86.70
2022-08-07T01:16:47.406Z,86.70
2022-08-07T01:19:18.870Z,86.70
2022-08-07T01:21:47.073Z,86.70
2022-08-07T01:24:14.202Z,86.80
2022-08-07T01:26:47.913Z,86.60
2022-08-07T01:29:19.664Z,86.60
2022-08-07T01:31:48.677Z,86.70
2022-08-07T01:34:17.877Z,86.60
2022-08-07T01:36:51.386Z,86.60
2022-08-07T01:39:25.327Z,86.50
2022-08-07T01:42:37.174Z,86.50
2022-08-07T01:44:53.420Z,86.70
2022-08-07T01:48:18.585Z,86.60
2022-08-07T01:50:07.457Z,86.70
2022-08-07T01:52:34.248Z,86.70
2022-08-07T01:55:01.108Z,86.50
2022-08-07T01:57:29.353Z,86.50
2022-08-07T02:00:03.607Z,86.50
2022-08-07T02:03:15.993Z,86.50
2022-08-07T02:05:43.213Z,86.60
2022-08-07T02:08:16.764Z,86.50
2022-08-07T02:10:43.656Z,86.60
2022-08-07T02:13:15.640Z,86.60
2022-08-07T02:15:42.393Z,86.50
2022-08-07T02:18:12.784Z,86.60
2022-08-07T02:20:40.124Z,86.70
2022-08-07T02:23:08.293Z,86.60
2022-08-07T02:26:26.722Z,86.50
2022-08-07T02:28:24.748Z,86.50
2022-08-07T02:30:52.616Z,86.40
2022-08-07T02:33:19.702Z,86.30
2022-08-07T02:36:28.701Z,86.40
2022-08-07T02:38:37.032Z,86.20
2022-08-07T02:41:04.446Z,86.20
2022-08-07T02:43:31.488Z,86.30
2022-08-07T02:46:02.342Z,86.30
2022-08-07T02:48:30.476Z,86.30
2022-08-07T02:50:57.704Z,86.00
2022-08-07T02:53:28.741Z,86.00
2022-08-07T02:56:04.195Z,85.90
2022-08-07T02:58:33.470Z,86.00
2022-08-07T03:01:00.609Z,85.70
2022-08-07T03:03:42.123Z,85.70
2022-08-07T03:06:16.398Z,85.40
2022-08-07T03:08:52.184Z,86.10
2022-08-07T03:11:19.582Z,85.30
2022-08-07T03:13:52.120Z,85.20
2022-08-07T03:16:28.911Z,85.00
2022-08-07T03:18:58.202Z,85.10
2022-08-07T03:21:24.997Z,85.20
2022-08-07T03:24:18.133Z,85.40
2022-08-07T03:26:51.254Z,85.40
2022-08-07T03:29:25.443Z,85.50
2022-08-07T03:31:54.440Z,85.50
2022-08-07T03:34:22.914Z,85.40
2022-08-07T03:36:54.203Z,85.50
2022-08-07T03:40:00.113Z,85.40
2022-08-07T03:42:07.968Z,85.30
2022-08-07T03:44:36.081Z,85.20
2022-08-07T03:47:11.368Z,85.20
2022-08-07T03:49:41.636Z,85.20
2022-08-07T03:52:22.239Z,85.10
2022-08-07T03:54:55.291Z,84.90
2022-08-07T03:58:33.428Z,84.70
2022-08-07T04:00:14.829Z,84.70
2022-08-07T04:02:43.132Z,84.90
2022-08-07T04:05:14.312Z,84.80
2022-08-07T04:07:46.582Z,84.90
2022-08-07T04:10:19.003Z,84.90
2022-08-07T04:12:47.333Z,84.70
2022-08-07T04:15:14.258Z,84.80
2022-08-07T04:18:56.929Z,84.80
2022-08-07T04:20:29.832Z,84.80
2022-08-07T04:23:01.817Z,84.70
2022-08-07T04:25:39.057Z,84.60
2022-08-07T04:28:10.431Z,84.40
2022-08-07T04:30:55.517Z,84.30
2022-08-07T04:33:24.617Z,84.50
2022-08-07T04:35:53.262Z,84.70
2022-08-07T04:38:21.173Z,84.90
2022-08-07T04:40:51.640Z,85.20
2022-08-07T04:44:10.487Z,85.30
2022-08-07T04:46:59.355Z,85.40
2022-08-07T04:49:29.343Z,85.40
2022-08-07T04:52:18.715Z,85.20
2022-08-07T04:55:01.804Z,85.10
2022-08-07T04:58:11.093Z,85.10
2022-08-07T05:00:56.095Z,85.10
2022-08-07T05:04:00.369Z,85.00
2022-08-07T05:06:43.047Z,84.90
2022-08-07T05:09:45.590Z,84.80
2022-08-07T05:12:27.228Z,84.70
2022-08-07T05:15:04.173Z,84.60
2022-08-07T05:17:52.156Z,84.40
2022-08-07T05:20:21.575Z,84.30
2022-08-07T05:22:49.853Z,84.10
2022-08-07T05:25:25.251Z,84.50
2022-08-07T05:28:20.456Z,84.00
2022-08-07T05:30:48.956Z,83.80
2022-08-07T05:33:15.795Z,83.80
2022-08-07T05:35:45.015Z,83.70
2022-08-07T05:38:12.456Z,83.70
2022-08-07T05:40:59.271Z,83.70
2022-08-07T05:43:50.199Z,83.50
2022-08-07T05:46:13.736Z,83.20
2022-08-07T05:48:58.303Z,83.10
2022-08-07T05:51:26.378Z,83.10
2022-08-07T05:54:09.508Z,82.90
2022-08-07T05:56:45.567Z,82.90
2022-08-07T05:59:21.239Z,82.90
2022-08-07T06:01:48.636Z,82.80
2022-08-07T06:04:17.462Z,82.80
2022-08-07T06:06:46.217Z,82.70
2022-08-07T06:09:15.639Z,82.70
2022-08-07T06:11:42.485Z,82.70
2022-08-07T06:14:11.446Z,82.70
2022-08-07T06:16:40.423Z,83.10
2022-08-07T06:19:07.233Z,82.20
2022-08-07T06:22:14.461Z,81.60
2022-08-07T06:24:45.476Z,81.00
2022-08-07T06:27:08.426Z,80.00
2022-08-07T06:29:39.024Z,79.40
2022-08-07T06:32:06.155Z,79.10
2022-08-07T06:34:32.895Z,79.10
2022-08-07T06:37:02.589Z,78.70
2022-08-07T06:40:16.978Z,78.20
2022-08-07T06:42:32.926Z,78.10
2022-08-07T06:45:02.194Z,78.10
2022-08-07T06:47:29.143Z,77.10
2022-08-07T06:50:14.673Z,76.20
2022-08-07T06:52:53.213Z,75.40
2022-08-07T06:56:00.489Z,74.50
2022-08-07T06:58:16.792Z,73.80
2022-08-07T07:00:48.432Z,72.80
2022-08-07T07:03:26.417Z,72.00
2022-08-07T07:13:56.601Z,71.60
2022-08-07T07:20:12.204Z,71.30
2022-08-07T07:24:10.106Z,71.20
2022-08-07T07:26:32.658Z,71.50
2022-08-07T07:29:56.258Z,71.50
2022-08-07T07:31:59.412Z,71.40
2022-08-07T07:34:33.703Z,71.20
2022-08-07T07:37:14.339Z,70.90
2022-08-07T07:39:52.086Z,71.00
2022-08-07T07:42:25.729Z,71.10
2022-08-07T07:45:06.480Z,70.00
2022-08-07T07:47:42.712Z,70.30
2022-08-07T07:50:34.753Z,69.80
2022-08-07T07:53:20.156Z,70.50
2022-08-07T07:55:54.972Z,69.90
2022-08-07T07:58:26.354Z,69.50
2022-08-07T08:00:54.945Z,68.90
2022-08-07T08:04:06.061Z,69.00
2022-08-07T08:06:13.027Z,69.10
2022-08-07T08:08:42.071Z,67.80
2022-08-07T08:11:16.082Z,67.70
2022-08-07T08:13:53.827Z,67.70
2022-08-07T08:16:26.387Z,67.50
2022-08-07T08:18:57.006Z,67.60
2022-08-07T08:22:03.037Z,68.00
2022-08-07T08:24:57.002Z,68.00
2022-08-07T08:27:26.193Z,68.60
2022-08-07T08:30:05.207Z,68.80
2022-08-07T08:32:38.509Z,69.00
2022-08-07T08:35:08.789Z,68.70
2022-08-07T08:38:00.934Z,68.70
2022-08-07T08:40:31.596Z,68.80
2022-08-07T08:43:22.090Z,68.80
2022-08-07T08:46:09.645Z,68.80
2022-08-07T08:49:16.562Z,68.80
2022-08-07T08:52:13.878Z,68.60
2022-08-07T08:55:21.109Z,68.50
2022-08-07T08:58:13.319Z,68.50
2022-08-07T09:00:52.737Z,68.50
2022-08-07T09:03:47.403Z,68.70
2022-08-07T09:06:55.067Z,69.00
2022-08-07T09:09:39.204Z,69.30
2022-08-07T09:12:30.592Z,68.90
2022-08-07T09:16:25.296Z,68.60
2022-08-07T09:18:47.469Z,68.30
2022-08-07T09:22:22.409Z,68.60
2022-08-07T09:25:00.709Z,68.50
2022-08-07T09:27:59.438Z,68.30
2022-08-07T09:30:37.689Z,67.90
2022-08-07T09:33:52.523Z,67.70
2022-08-07T09:36:42.780Z,67.80
2022-08-07T09:39:52.752Z,67.60
2022-08-07T09:42:16.988Z,68.00
2022-08-07T09:47:24.705Z,67.80
2022-08-07T09:48:01.443Z,68.80
2022-08-07T09:50:36.593Z,68.90
2022-08-07T09:53:07.922Z,70.00
2022-08-07T09:56:02.692Z,71.00
2022-08-07T09:58:48.736Z,70.00
2022-08-07T10:01:53.344Z,67.40
2022-08-07T10:04:47.704Z,65.70
2022-08-07T10:08:03.926Z,64.60
2022-08-07T10:11:00.143Z,62.80
2022-08-07T10:13:55.305Z,62.50
2022-08-07T10:16:33.393Z,62.20
2022-08-07T10:19:11.119Z,61.30
2022-08-07T10:22:16.014Z,59.90
2022-08-07T10:25:08.205Z,58.10
2022-08-07T10:27:52.181Z,57.00
2022-08-07T10:30:20.257Z,56.90
2022-08-07T10:33:09.010Z,56.80
2022-08-07T10:35:55.637Z,55.90
2022-08-07T10:38:51.103Z,55.80
2022-08-07T10:41:57.740Z,55.90
2022-08-07T10:44:56.072Z,55.80
2022-08-07T10:47:53.122Z,55.90
2022-08-07T10:50:49.902Z,55.60
2022-08-07T10:53:43.975Z,55.00
2022-08-07T10:56:31.519Z,54.50
2022-08-07T10:59:21.313Z,54.70
2022-08-07T11:02:12.296Z,54.70
2022-08-07T11:05:15.295Z,55.50
2022-08-07T11:08:07.604Z,56.50
2022-08-07T11:10:48.725Z,56.50
2022-08-07T11:14:42.705Z,56.50
2022-08-07T11:16:36.412Z,56.80
2022-08-07T11:19:27.230Z,56.50
2022-08-07T11:22:27.211Z,56.50
2022-08-07T11:25:08.301Z,57.10
2022-08-07T11:28:01.450Z,57.30
2022-08-07T11:31:03.186Z,57.50
2022-08-07T11:33:59.356Z,57.60
2022-08-07T11:36:56.456Z,57.70
2022-08-07T11:39:59.126Z,57.30
2022-08-07T11:42:29.577Z,57.40
2022-08-07T11:44:59.294Z,57.60
2022-08-07T11:47:39.144Z,57.40
2022-08-07T11:50:32.916Z,57.30
2022-08-07T11:53:16.986Z,56.70
2022-08-07T11:56:25.335Z,57.30
2022-08-07T11:58:58.795Z,57.30
2022-08-07T12:01:59.300Z,57.10
2022-08-07T12:04:54.057Z,57.10
2022-08-07T12:07:40.275Z,57.20
2022-08-07T12:10:26.500Z,57.30
2022-08-07T12:13:11.291Z,57.20
2022-08-07T12:16:06.179Z,56.80
2022-08-07T12:19:04.787Z,56.60
2022-08-07T12:22:35.814Z,56.60
2022-08-07T12:24:40.220Z,56.90
2022-08-07T12:27:14.987Z,57.30
2022-08-07T12:29:54.688Z,56.70
2022-08-07T12:32:44.832Z,56.50
2022-08-07T12:35:15.010Z,56.60
2022-08-07T12:38:11.759Z,56.80
2022-08-07T12:40:47.803Z,56.80
2022-08-07T12:44:04.122Z,56.50
2022-08-07T12:46:32.744Z,56.50
2022-08-07T12:49:25.541Z,56.60
2022-08-07T12:52:18.259Z,56.50
2022-08-07T12:55:05.382Z,56.60
2022-08-07T12:57:39.009Z,56.70
2022-08-07T13:00:41.738Z,56.50
2022-08-07T13:04:02.293Z,56.10
2022-08-07T13:07:03.237Z,56.00
2022-08-07T13:10:28.550Z,55.80
2022-08-07T13:12:54.204Z,54.80
2022-08-07T13:15:38.533Z,55.10
2022-08-07T13:18:26.106Z,54.60
2022-08-07T13:21:06.105Z,54.50
2022-08-07T13:24:04.837Z,53.90
2022-08-07T13:26:46.247Z,54.00
2022-08-07T13:29:23.801Z,53.50
2022-08-07T13:32:31.136Z,52.70
2022-08-07T13:34:56.970Z,52.70
2022-08-07T13:37:40.663Z,53.30
2022-08-07T13:40:34.847Z,53.40
2022-08-07T13:43:04.467Z,53.70
2022-08-07T13:46:21.117Z,53.60
2022-08-07T13:48:27.696Z,53.40
2022-08-07T13:51:02.143Z,53.60
2022-08-07T13:54:00.646Z,53.90
2022-08-07T13:56:35.460Z,54.00
2022-08-07T13:59:19.861Z,53.60
2022-08-07T14:02:07.733Z,53.60
2022-08-07T14:05:07.762Z,53.40
2022-08-07T14:07:59.701Z,53.80
2022-08-07T14:10:34.664Z,54.10
2022-08-07T14:13:10.305Z,54.10
2022-08-07T14:15:42.192Z,54.60
2022-08-07T14:18:29.008Z,54.00
2022-08-07T14:21:20.967Z,54.00
2022-08-07T14:24:13.058Z,53.70
2022-08-07T14:26:50.499Z,53.50
2022-08-07T14:30:05.871Z,53.50
2022-08-07T14:32:09.244Z,53.80
2022-08-07T14:34:47.052Z,53.90
2022-08-07T14:37:16.852Z,54.20
2022-08-07T14:40:15.985Z,54.50
2022-08-07T14:42:33.649Z,54.30
2022-08-07T14:47:51.208Z,54.30
2022-08-07T14:50:20.612Z,54.40
2022-08-07T14:52:50.371Z,54.70
2022-08-07T14:55:18.039Z,54.70
2022-08-07T14:57:57.884Z,54.80
2022-08-07T15:00:29.828Z,55.20
2022-08-07T15:02:58.987Z,55.00
2022-08-07T15:05:26.885Z,55.10
2022-08-07T15:07:58.537Z,55.20
2022-08-07T15:10:30.156Z,55.30
2022-08-07T15:12:59.929Z,54.90
2022-08-07T15:15:53.697Z,55.20
2022-08-07T15:18:35.969Z,55.50
2022-08-07T15:26:46.864Z,56.30
2022-08-07T15:30:06.885Z,56.30
2022-08-07T15:32:05.080Z,56.50
2022-08-07T15:34:56.942Z,56.70
2022-08-07T15:38:17.829Z,56.80
2022-08-07T15:40:33.881Z,57.00
2022-08-07T15:43:53.258Z,57.10
2022-08-07T15:54:39.267Z,57.60
2022-08-07T15:57:10.581Z,57.50
2022-08-07T15:59:54.477Z,57.50
2022-08-07T16:02:26.084Z,57.70
2022-08-07T16:04:58.105Z,57.80
2022-08-07T16:08:32.663Z,57.70
2022-08-07T16:10:26.331Z,57.70
2022-08-07T16:13:05.551Z,57.80
2022-08-07T16:15:57.268Z,57.80
2022-08-07T16:18:49.984Z,57.90
2022-08-07T16:22:02.058Z,58.00
2022-08-07T16:24:38.494Z,58.10
2022-08-07T16:27:40.797Z,58.10
2022-08-07T16:30:30.599Z,58.30
2022-08-07T16:34:02.601Z,58.50
2022-08-07T16:36:31.428Z,58.60
2022-08-07T16:39:02.163Z,58.70
2022-08-07T16:41:41.097Z,58.90
2022-08-07T16:44:53.775Z,59.00
2022-08-07T16:47:56.934Z,59.10
2022-08-07T16:51:20.590Z,59.20
2022-08-07T16:54:19.808Z,59.20
2022-08-07T16:56:55.993Z,59.30
2022-08-07T16:59:47.472Z,59.30
2022-08-07T17:02:52.186Z,59.40
2022-08-07T17:06:02.224Z,59.60
2022-08-07T17:08:09.511Z,59.70
2022-08-07T17:10:54.637Z,59.90
2022-08-07T17:13:38.915Z,60.10
2022-08-07T17:16:25.629Z,60.20
2022-08-07T17:18:52.387Z,60.40
2022-08-07T17:21:22.685Z,60.40
2022-08-07T17:23:57.686Z,60.50
2022-08-07T17:27:05.644Z,60.70
2022-08-07T17:30:14.323Z,61.00
2022-08-07T17:34:08.792Z,61.20
2022-08-07T17:35:55.913Z,61.80
2022-08-07T17:38:50.271Z,62.60
2022-08-07T17:42:03.755Z,63.80
2022-08-07T17:44:52.717Z,64.60
2022-08-07T17:47:43.173Z,65.00
2022-08-07T17:50:20.071Z,66.20
2022-08-07T17:52:59.729Z,66.70
2022-08-07T17:56:00.998Z,67.40
2022-08-07T17:58:40.091Z,68.00
2022-08-07T18:01:34.743Z,69.00
2022-08-07T18:04:58.025Z,69.30
2022-08-07T18:07:37.303Z,70.00
2022-08-07T18:12:06.255Z,70.50
2022-08-07T18:14:01.770Z,71.10
2022-08-07T18:16:58.494Z,71.70
2022-08-07T18:21:08.442Z,72.40
2022-08-07T18:22:30.345Z,73.00
2022-08-07T18:25:23.968Z,73.50
2022-08-07T18:28:35.658Z,73.70
2022-08-07T18:31:04.605Z,74.30
2022-08-07T18:33:38.914Z,74.70
2022-08-07T18:36:32.697Z,75.10
2022-08-07T18:40:07.535Z,75.70
2022-08-07T18:42:12.932Z,75.90
2022-08-07T18:45:42.764Z,76.20
2022-08-07T18:48:01.059Z,76.10
2022-08-07T18:50:46.346Z,76.50
2022-08-07T18:53:55.523Z,76.80
2022-08-07T18:56:37.697Z,77.20
2022-08-07T18:59:47.781Z,77.60
2022-08-07T19:02:34.000Z,78.10
2022-08-07T19:05:17.471Z,78.00
2022-08-07T19:08:05.620Z,78.30
2022-08-07T19:10:55.400Z,78.50
2022-08-07T19:13:27.451Z,79.00
2022-08-07T19:16:05.756Z,79.00
2022-08-07T19:18:58.260Z,79.30
2022-08-07T19:21:58.588Z,79.30
2022-08-07T19:24:43.633Z,79.20
2022-08-07T19:28:29.620Z,79.10
2022-08-07T19:31:02.235Z,79.80
2022-08-07T19:32:51.395Z,79.10
2022-08-07T19:35:25.709Z,79.20
2022-08-07T19:38:00.907Z,79.10
2022-08-07T19:40:34.783Z,79.10
2022-08-07T19:43:49.136Z,79.20
2022-08-07T19:46:14.826Z,79.20
2022-08-07T19:49:58.135Z,79.00
2022-08-07T19:52:18.216Z,78.90
2022-08-07T19:54:55.930Z,78.90
2022-08-07T19:58:03.260Z,79.00
2022-08-07T20:00:30.113Z,78.90
2022-08-07T20:03:04.155Z,79.10
2022-08-07T20:06:00.102Z,79.10
2022-08-07T20:08:22.909Z,79.00
2022-08-07T20:11:03.619Z,79.00
2022-08-07T20:13:51.049Z,79.00
2022-08-07T20:16:35.670Z,79.50
2022-08-07T20:19:05.770Z,79.00
2022-08-07T20:21:42.197Z,78.80
2022-08-07T20:24:28.866Z,78.70
2022-08-07T20:27:02.258Z,78.60
2022-08-07T20:29:49.268Z,78.40
2022-08-07T20:32:47.049Z,78.10
2022-08-07T20:35:25.270Z,77.90
2022-08-07T20:37:58.259Z,77.70
2022-08-07T20:40:32.590Z,77.60
2022-08-07T20:43:01.066Z,77.60
2022-08-07T20:46:24.881Z,77.60
2022-08-07T20:48:28.834Z,77.50
2022-08-07T20:50:58.870Z,77.40
2022-08-07T20:54:03.286Z,77.10
2022-08-07T20:56:12.548Z,77.10
2022-08-07T20:58:43.479Z,77.30
2022-08-07T21:01:19.947Z,77.30
2022-08-07T21:04:18.758Z,77.30
2022-08-07T21:06:38.272Z,77.20
2022-08-07T21:09:14.135Z,77.20
2022-08-07T21:11:50.799Z,77.10
2022-08-07T21:14:33.932Z,77.10
2022-08-07T21:18:02.950Z,76.90
2022-08-07T21:20:05.309Z,76.90
2022-08-07T21:22:45.024Z,76.80
2022-08-07T21:25:38.680Z,76.70
2022-08-07T21:28:16.686Z,76.70
2022-08-07T21:31:03.316Z,76.40
2022-08-07T21:33:44.977Z,76.20
2022-08-07T21:36:32.202Z,76.20
2022-08-07T21:39:02.588Z,76.00
2022-08-07T21:42:01.453Z,75.90
2022-08-07T21:44:43.387Z,75.70
2022-08-07T21:47:26.247Z,75.70
2022-08-07T21:50:14.770Z,75.60
2022-08-07T21:53:00.458Z,75.60
2022-08-07T21:55:55.898Z,75.50
2022-08-07T21:58:40.185Z,75.40
2022-08-07T22:01:19.250Z,75.50
2022-08-07T22:03:48.034Z,75.30
2022-08-07T22:06:28.720Z,75.40
2022-08-07T22:09:03.434Z,75.50
2022-08-07T22:12:05.361Z,75.50
2022-08-07T22:14:23.714Z,75.60
2022-08-07T22:17:01.836Z,75.80
2022-08-07T22:19:43.185Z,75.70
2022-08-07T22:22:29.377Z,75.70
2022-08-07T22:25:05.696Z,75.70
2022-08-07T22:28:30.143Z,75.70
2022-08-07T22:31:59.368Z,75.70
2022-08-07T22:34:31.647Z,75.80
2022-08-07T22:37:26.933Z,75.70
2022-08-07T22:40:44.823Z,75.60
2022-08-07T22:43:50.433Z,75.80
2022-08-07T22:47:02.139Z,75.60
2022-08-07T22:49:51.662Z,75.50
2022-08-07T22:52:43.389Z,75.50
2022-08-07T22:55:44.007Z,75.40
2022-08-07T22:58:49.647Z,75.30
2022-08-07T23:01:58.954Z,75.30
2022-08-07T23:04:30.670Z,75.30
2022-08-07T23:07:41.956Z,75.40
2022-08-07T23:10:41.938Z,75.40
2022-08-07T23:13:19.771Z,75.50
2022-08-07T23:16:05.785Z,75.70
2022-08-07T23:19:15.395Z,75.70
2022-08-07T23:22:15.012Z,75.90
2022-08-07T23:25:01.519Z,76.00
2022-08-07T23:28:22.108Z,76.10
2022-08-07T23:31:42.723Z,76.30
2022-08-07T23:34:33.461Z,76.50
2022-08-07T23:37:19.040Z,76.70
2022-08-07T23:40:00.857Z,76.70
2022-08-07T23:42:39.599Z,76.90
2022-08-07T23:45:33.188Z,76.80
2022-08-07T23:48:29.082Z,76.90
2022-08-07T23:53:08.845Z,77.00
2022-08-07T23:54:43.897Z,76.90
2022-08-07T23:57:18.663Z,76.90
